Observation data for Gail on 11/09/2019      Previous  Date       Current Mesonet Observations  Soil Data  Daily Summary Page  Observations in Plain Language
KGGS 090600Z 23006KT 05/04 A303 RMK A01 T00540043  RH  095%=      5-min Rain = 0
KGGS 090605Z 23007KT 05/04 A303 RMK A01 T00540043  RH  095%=      5-min Rain = 0
KGGS 090610Z 23007KT 06/04 A303 RMK A01 T00550044  RH  095%=      5-min Rain = 0
KGGS 090615Z 23007KT 06/05 A303 RMK A01 T00560045  RH  095%=      5-min Rain = 0
KGGS 090620Z 23007KT 06/05 A3031 RMK A01 T00550045  RH  095%=      5-min Rain = 0
KGGS 090625Z 23007KT 06/05 A3031 RMK A01 T00560045  RH  095%=      5-min Rain = 0
KGGS 090630Z 22007KT 06/05 A3031 RMK A01 T00560045  RH  095%=      5-min Rain = 0
KGGS 090635Z 22006KT 06/05 A303 RMK A01 T00560045  RH  095%=      5-min Rain = 0
KGGS 090640Z 23006KT 06/04 A303 RMK A01 T00550044  RH  095%=      5-min Rain = 0
KGGS 090645Z 23006KT 05/04 A303 RMK A01 T00540043  RH  095%=      5-min Rain = 0
KGGS 090650Z 23006KT 05/04 A303 RMK A01 T00540043  RH  095%=      5-min Rain = 0
KGGS 090655Z 23005KT 05/04 A303 RMK A01 T00530043  RH  095%=      5-min Rain = 0
KGGS 090700Z 23005KT 05/04 A303 RMK A01 T00530043  RH  095%=      5-min Rain = 0
KGGS 090705Z 23005KT 05/04 A303 RMK A01 T00540044  RH  095%=      5-min Rain = 0
KGGS 090710Z 23006KT 06/04 A3029 RMK A01 T00550044  RH  095%=      5-min Rain = 0
KGGS 090715Z 22005KT 06/05 A3029 RMK A01 T00560045  RH  095%=      5-min Rain = 0
KGGS 090720Z 22006KT 06/05 A3029 RMK A01 T00560045  RH  095%=      5-min Rain = 0
KGGS 090725Z 23006KT 06/05 A3029 RMK A01 T00560045  RH  095%=      5-min Rain = 0
KGGS 090730Z 22007KT 06/04 A3029 RMK A01 T00550044  RH  095%=      5-min Rain = 0
KGGS 090735Z 23007KT 06/05 A3029 RMK A01 T00550045  RH  095%=      5-min Rain = 0
KGGS 090740Z 23007KT 06/05 A3029 RMK A01 T00560045  RH  095%=      5-min Rain = 0
KGGS 090745Z 23007KT 06/05 A3029 RMK A01 T00560045  RH  095%=      5-min Rain = 0
KGGS 090750Z 23008KT 06/05 A3028 RMK A01 T00560045  RH  095%=      5-min Rain = 0
KGGS 090755Z 22008KT 06/05 A3028 RMK A01 T00560045  RH  095%=      5-min Rain = 0
KGGS 090800Z 22007KT 06/05 A3028 RMK A01 T00560045  RH  095%=      5-min Rain = 0
KGGS 090805Z 22007KT 05/04 A3028 RMK A01 T00540044  RH  095%=      5-min Rain = 0
KGGS 090810Z 22007KT 05/04 A3028 RMK A01 T00530042  RH  095%=      5-min Rain = 0
KGGS 090815Z 22007KT 05/04 A3027 RMK A01 T00520042  RH  095%=      5-min Rain = 0
KGGS 090820Z 22007KT 05/04 A3027 RMK A01 T00520041  RH  095%=      5-min Rain = 0
KGGS 090825Z 22007KT 05/04 A3027 RMK A01 T00500039  RH  095%=      5-min Rain = 0
KGGS 090830Z 22007KT 05/04 A3027 RMK A01 T00480038  RH  095%=      5-min Rain = 0
KGGS 090835Z 22006KT 05/04 A3027 RMK A01 T00460036  RH  095%=      5-min Rain = 0
KGGS 090840Z 22006KT 04/03 A3027 RMK A01 T00440033  RH  095%=      5-min Rain = 0
KGGS 090845Z 22007KT 04/03 A3027 RMK A01 T00430033  RH  095%=      5-min Rain = 0
KGGS 090850Z 22006KT 04/03 A3026 RMK A01 T00430033  RH  095%=      5-min Rain = 0
KGGS 090855Z 22006KT 04/03 A3026 RMK A01 T00420032  RH  095%=      5-min Rain = 0
KGGS 090900Z 22006KT 04/03 A3026 RMK A01 T00390029  RH  095%=      5-min Rain = 0
KGGS 090905Z 22006KT 04/03 A3026 RMK A01 T00350025  RH  095%=      5-min Rain = 0
KGGS 090910Z 23006KT 04/03 A3026 RMK A01 T00350025  RH  095%=      5-min Rain = 0
KGGS 090915Z 24006KT 04/03 A3026 RMK A01 T00410032  RH  095%=      5-min Rain = 0
KGGS 090920Z 24005KT 04/03 A3026 RMK A01 T00430033  RH  095%=      5-min Rain = 0
KGGS 090925Z 23005KT 04/03 A3026 RMK A01 T00440034  RH  095%=      5-min Rain = 0
KGGS 090930Z 23004KT 05/04 A3026 RMK A01 T00450035  RH  095%=      5-min Rain = 0
KGGS 090935Z 23004KT 05/04 A3026 RMK A01 T00450035  RH  095%=      5-min Rain = 0
KGGS 090940Z 23005KT 04/03 A3026 RMK A01 T00420032  RH  095%=      5-min Rain = 0
KGGS 090945Z 23006KT 04/03 A3025 RMK A01 T00400030  RH  095%=      5-min Rain = 0
KGGS 090950Z 24006KT 04/03 A3025 RMK A01 T00420032  RH  095%=      5-min Rain = 0
KGGS 090955Z 24005KT 04/03 A3025 RMK A01 T00410031  RH  095%=      5-min Rain = 0
KGGS 091000Z 24004KT 04/03 A3025 RMK A01 T00400030  RH  095%=      5-min Rain = 0
KGGS 091005Z 25003KT 04/03 A3025 RMK A01 T00390029  RH  095%=      5-min Rain = 0
KGGS 091010Z 24004KT 04/03 A3025 RMK A01 T00400030  RH  095%=      5-min Rain = 0
KGGS 091015Z 25005KT 04/03 A3025 RMK A01 T00430033  RH  095%=      5-min Rain = 0
KGGS 091020Z 25005KT 05/04 A3025 RMK A01 T00470037  RH  095%=      5-min Rain = 0
KGGS 091025Z 25006KT 05/04 A3025 RMK A01 T00510041  RH  095%=      5-min Rain = 0
KGGS 091030Z 25006KT 05/04 A3025 RMK A01 T00510041  RH  095%=      5-min Rain = 0
KGGS 091035Z 24006KT 05/04 A3025 RMK A01 T00490040  RH  095%=      5-min Rain = 0
KGGS 091040Z 24006KT 05/04 A3025 RMK A01 T00480038  RH  095%=      5-min Rain = 0
KGGS 091045Z 24005KT 05/04 A3025 RMK A01 T00470037  RH  095%=      5-min Rain = 0
KGGS 091050Z 25005KT 05/04 A3025 RMK A01 T00460036  RH  095%=      5-min Rain = 0
KGGS 091055Z 26005KT 05/04 A3025 RMK A01 T00460036  RH  095%=      5-min Rain = 0
KGGS 091100Z 26005KT 05/04 A3025 RMK A01 T00470037  RH  095%=      5-min Rain = 0
KGGS 091105Z 26006KT 05/04 A3025 RMK A01 T00470037  RH  095%=      5-min Rain = 0
KGGS 091110Z 26006KT 05/04 A3025 RMK A01 T00480038  RH  095%=      5-min Rain = 0
KGGS 091115Z 26006KT 05/04 A3025 RMK A01 T00480037  RH  095%=      5-min Rain = 0
KGGS 091120Z 26005KT 05/04 A3025 RMK A01 T00480038  RH  095%=      5-min Rain = 0
KGGS 091125Z 27001KT 05/04 A3025 RMK A01 T00460035  RH  095%=      5-min Rain = 0
KGGS 091130Z 32002KT 05/04 A3025 RMK A01 T00460036  RH  095%=      5-min Rain = 0
KGGS 091135Z 34002KT 05/04 A3025 RMK A01 T00480038  RH  095%=      5-min Rain = 0
KGGS 091140Z 33002KT 05/04 A3025 RMK A01 T00480038  RH  095%=      5-min Rain = 0
KGGS 091145Z 32002KT 05/04 A3025 RMK A01 T00470036  RH  095%=      5-min Rain = 0
KGGS 091150Z 32002KT 05/04 A3025 RMK A01 T00450035  RH  095%=      5-min Rain = 0
KGGS 091155Z 31002KT 05/03 A3026 RMK A01 T00450034  RH  095%=      5-min Rain = 0
KGGS 091200Z 31002KT 05/03 A3026 RMK A01 T00450034  RH  095%=      5-min Rain = 0
KGGS 091205Z 25001KT 05/04 A3026 RMK A01 T00470037  RH  095%=      5-min Rain = 0
KGGS 091210Z 22002KT 05/04 A3026 RMK A01 T00480037  RH  095%=      5-min Rain = 0
KGGS 091215Z 22003KT 04/03 A3026 RMK A01 T00430032  RH  095%=      5-min Rain = 0
KGGS 091220Z 21004KT 04/03 A3026 RMK A01 T00390028  RH  094%=      5-min Rain = 0
KGGS 091225Z 23004KT 03/02 A3026 RMK A01 T00340023  RH  094%=      5-min Rain = 0
KGGS 091230Z 22004KT 03/02 A3026 RMK A01 T00340024  RH  094%=      5-min Rain = 0
KGGS 091235Z 21004KT 03/02 A3026 RMK A01 T00330022  RH  094%=      5-min Rain = 0
KGGS 091240Z 22005KT 03/02 A3026 RMK A01 T00310020  RH  094%=      5-min Rain = 0
KGGS 091245Z 22006KT 03/02 A3026 RMK A01 T00320022  RH  095%=      5-min Rain = 0
KGGS 091250Z 23007KT 03/02 A3026 RMK A01 T00330023  RH  095%=      5-min Rain = 0
KGGS 091255Z 23008KT 03/02 A3026 RMK A01 T00340024  RH  095%=      5-min Rain = 0
KGGS 091300Z 23008KT 03/02 A3026 RMK A01 T00340024  RH  095%=      5-min Rain = 0
KGGS 091305Z 23008KT 04/03 A3026 RMK A01 T00350025  RH  095%=      5-min Rain = 0
KGGS 091310Z 23007KT 04/03 A3026 RMK A01 T00360026  RH  095%=      5-min Rain = 0
KGGS 091315Z 23007KT 04/03 A3026 RMK A01 T00360026  RH  095%=      5-min Rain = 0
KGGS 091320Z 23006KT 04/03 A3026 RMK A01 T00380027  RH  095%=      5-min Rain = 0
KGGS 091325Z 24005KT 04/03 A3026 RMK A01 T00390029  RH  095%=      5-min Rain = 0
KGGS 091330Z 23006KT 04/03 A3026 RMK A01 T00400030  RH  095%=      5-min Rain = 0
KGGS 091335Z 23007KT 04/03 A3026 RMK A01 T00420032  RH  095%=      5-min Rain = 0
KGGS 091340Z 23007KT 04/03 A3026 RMK A01 T00440033  RH  095%=      5-min Rain = 0
KGGS 091345Z 23007KT 05/04 A3026 RMK A01 T00460035  RH  095%=      5-min Rain = 0
KGGS 091350Z 23006KT 05/04 A3026 RMK A01 T00490038  RH  095%=      5-min Rain = 0
KGGS 091355Z 24006KT 05/04 A3026 RMK A01 T00510040  RH  095%=      5-min Rain = 0
KGGS 091400Z 23007KT 05/04 A3026 RMK A01 T00540043  RH  095%=      5-min Rain = 0
KGGS 091405Z 23007KT 06/04 A3026 RMK A01 T00550044  RH  094%=      5-min Rain = 0
KGGS 091410Z 22008KT 06/05 A3026 RMK A01 T00560045  RH  094%=      5-min Rain = 0
KGGS 091415Z 22007KT 06/05 A3026 RMK A01 T00580047  RH  094%=      5-min Rain = 0
KGGS 091420Z 22007KT 06/05 A3027 RMK A01 T00600048  RH  094%=      5-min Rain = 0
KGGS 091425Z 23008KT 06/05 A3027 RMK A01 T00610049  RH  094%=      5-min Rain = 0
KGGS 091430Z 23006KT 07/05 A3027 RMK A01 T00650053  RH  094%=      5-min Rain = 0
KGGS 091435Z 24006KT 07/06 A3027 RMK A01 T00690056  RH  094%=      5-min Rain = 0
KGGS 091440Z 23007KT 07/06 A3027 RMK A01 T00690056  RH  094%=      5-min Rain = 0
KGGS 091445Z 22006KT 07/06 A3027 RMK A01 T00740060  RH  093%=      5-min Rain = 0
KGGS 091450Z 22006KT 08/06 A3027 RMK A01 T00760062  RH  093%=      5-min Rain = 0
KGGS 091455Z 22007KT 08/06 A3027 RMK A01 T00780063  RH  092%=      5-min Rain = 0
KGGS 091500Z 22006KT 08/07 A3027 RMK A01 T00820066  RH  092%=      5-min Rain = 0
KGGS 091505Z 22006KT 09/07 A3027 RMK A01 T00870070  RH  091%=      5-min Rain = 0
KGGS 091510Z 22007KT 09/07 A3027 RMK A01 T00880070  RH  091%=      5-min Rain = 0
KGGS 091515Z 22007KT 09/07 A3027 RMK A01 T00900071  RH  090%=      5-min Rain = 0
KGGS 091520Z 23006KT 09/07 A3027 RMK A01 T00930072  RH  089%=      5-min Rain = 0
KGGS 091525Z 23006KT 10/08 A3027 RMK A01 T00970075  RH  088%=      5-min Rain = 0
KGGS 091530Z 23007KT 10/08 A3027 RMK A01 T01010076  RH  087%=      5-min Rain = 0
KGGS 091535Z 24006KT 11/08 A3027 RMK A01 T01070080  RH  086%=      5-min Rain = 0
KGGS 091540Z 24006KT 11/08 A3027 RMK A01 T01130082  RH  084%=      5-min Rain = 0
KGGS 091545Z 24006KT 11/08 A3027 RMK A01 T01140080  RH  082%=      5-min Rain = 0
KGGS 091550Z 24007KT 12/08 A3027 RMK A01 T01170080  RH  080%=      5-min Rain = 0
KGGS 091555Z 24006KT 12/08 A3027 RMK A01 T01220082  RH  079%=      5-min Rain = 0
KGGS 091600Z 25006KT 13/08 A3027 RMK A01 T01250082  RH  077%=      5-min Rain = 0
KGGS 091605Z 25006KT 13/08 A3027 RMK A01 T01290082  RH  075%=      5-min Rain = 0
KGGS 091610Z 26006KT 13/08 A3027 RMK A01 T01310081  RH  074%=      5-min Rain = 0
KGGS 091615Z 25006KT 13/08 A3027 RMK A01 T01320080  RH  073%=      5-min Rain = 0
KGGS 091620Z 24006KT 14/08 A3027 RMK A01 T01350081  RH  072%=      5-min Rain = 0
KGGS 091625Z 24006KT 14/08 A3027 RMK A01 T01380081  RH  071%=      5-min Rain = 0
KGGS 091630Z 22006KT 14/08 A3027 RMK A01 T01380080  RH  070%=      5-min Rain = 0
KGGS 091635Z 24007KT 14/08 A3027 RMK A01 T01390080  RH  069%=      5-min Rain = 0
KGGS 091640Z 24007KT 14/08 A3027 RMK A01 T01400080  RH  069%=      5-min Rain = 0
KGGS 091645Z 24007KT 14/08 A3027 RMK A01 T01420082  RH  069%=      5-min Rain = 0
KGGS 091650Z 22007KT 14/08 A3027 RMK A01 T01420082  RH  069%=      5-min Rain = 0
KGGS 091655Z 22005KT 14/08 A3027 RMK A01 T01430083  RH  069%=      5-min Rain = 0
KGGS 091700Z 21005KT 15/08 A3027 RMK A01 T01460084  RH  068%=      5-min Rain = 0
KGGS 091705Z 23005KT 15/08 A3027 RMK A01 T01460084  RH  068%=      5-min Rain = 0
KGGS 091710Z 23006KT 15/09 A3026 RMK A01 T01500086  RH  067%=      5-min Rain = 0
KGGS 091715Z 22006KT 15/09 A3026 RMK A01 T01520087  RH  067%=      5-min Rain = 0
KGGS 091720Z 23006KT 15/09 A3026 RMK A01 T01540088  RH  067%=      5-min Rain = 0
KGGS 091725Z 24006KT 16/09 A3025 RMK A01 T01580089  RH  065%=      5-min Rain = 0
KGGS 091730Z 20005KT 16/09 A3025 RMK A01 T01580089  RH  065%=      5-min Rain = 0
KGGS 091735Z 21004KT 16/09 A3025 RMK A01 T01630092  RH  064%=      5-min Rain = 0
KGGS 091740Z 23005KT 17/09 A3025 RMK A01 T01680092  RH  063%=      5-min Rain = 0
KGGS 091745Z 26005KT 17/09 A3024 RMK A01 T01690091  RH  062%=      5-min Rain = 0
KGGS 091750Z 25005KT 17/09 A3024 RMK A01 T01690091  RH  062%=      5-min Rain = 0
KGGS 091755Z 24005G10KT 17/09 A3024 RMK A01 T01740093  RH  061%=      5-min Rain = 0
KGGS 091800Z 25006KT 18/09 A3024 RMK A01 T01770093  RH  060%=      5-min Rain = 0
KGGS 091805Z 23008KT 18/09 A3023 RMK A01 T01780094  RH  060%=      5-min Rain = 0
KGGS 091810Z 23007KT 18/10 A3023 RMK A01 T01820095  RH  059%=      5-min Rain = 0
KGGS 091815Z 22006KT 19/10 A3022 RMK A01 T01850096  RH  058%=      5-min Rain = 0
KGGS 091820Z 24007KT 18/10 A3022 RMK A01 T01840095  RH  058%=      5-min Rain = 0
KGGS 091825Z 24008KT 18/09 A3022 RMK A01 T01830094  RH  058%=      5-min Rain = 0
KGGS 091830Z 24007KT 19/09 A3022 RMK A01 T01850094  RH  057%=      5-min Rain = 0
KGGS 091835Z 23008KT 19/09 A3022 RMK A01 T01880094  RH  056%=      5-min Rain = 0
KGGS 091840Z 22008KT 19/09 A3021 RMK A01 T01860093  RH  056%=      5-min Rain = 0
KGGS 091845Z 23007KT 19/10 A3021 RMK A01 T01910096  RH  056%=      5-min Rain = 0
KGGS 091850Z 23007G13KT 19/10 A3021 RMK A01 T01900095  RH  055%=      5-min Rain = 0
KGGS 091855Z 22008KT 19/09 A302 RMK A01 T01900094  RH  055%=      5-min Rain = 0
KGGS 091900Z 22008KT 19/09 A302 RMK A01 T01890094  RH  056%=      5-min Rain = 0
KGGS 091905Z 23009KT 19/09 A302 RMK A01 T01930093  RH  054%=      5-min Rain = 0
KGGS 091910Z 22007KT 19/09 A3019 RMK A01 T01940093  RH  054%=      5-min Rain = 0
KGGS 091915Z 23008KT 20/09 A3019 RMK A01 T01960093  RH  053%=      5-min Rain = 0
KGGS 091920Z 23008KT 20/09 A3019 RMK A01 T01960090  RH  052%=      5-min Rain = 0
KGGS 091925Z 23007KT 20/09 A3018 RMK A01 T01970094  RH  053%=      5-min Rain = 0
KGGS 091930Z 23007KT 20/09 A3018 RMK A01 T01990090  RH  051%=      5-min Rain = 0
KGGS 091935Z 24007KT 20/09 A3017 RMK A01 T02000088  RH  050%=      5-min Rain = 0
KGGS 091940Z 22007KT 20/09 A3017 RMK A01 T02030093  RH  051%=      5-min Rain = 0
KGGS 091945Z 23007KT 20/09 A3017 RMK A01 T02000091  RH  051%=      5-min Rain = 0
KGGS 091950Z 22006KT 20/09 A3017 RMK A01 T02000091  RH  051%=      5-min Rain = 0
KGGS 091955Z 22006KT 20/10 A3017 RMK A01 T02040095  RH  051%=      5-min Rain = 0
KGGS 092000Z 24007KT 21/09 A3016 RMK A01 T02050090  RH  049%=      5-min Rain = 0
KGGS 092005Z 21008KT 21/09 A3016 RMK A01 T02050093  RH  050%=      5-min Rain = 0
KGGS 092010Z 22006KT 20/09 A3016 RMK A01 T02030092  RH  050%=      5-min Rain = 0
KGGS 092015Z 22006KT 21/09 A3016 RMK A01 T02090089  RH  048%=      5-min Rain = 0
KGGS 092020Z 21007G12KT 21/09 A3016 RMK A01 T02060091  RH  049%=      5-min Rain = 0
KGGS 092025Z 21007KT 20/09 A3015 RMK A01 T02040088  RH  049%=      5-min Rain = 0
KGGS 092030Z 22009KT 21/09 A3015 RMK A01 T02070085  RH  047%=      5-min Rain = 0
KGGS 092035Z 21007KT 21/09 A3015 RMK A01 T02080085  RH  047%=      5-min Rain = 0
KGGS 092040Z 21008KT 21/08 A3015 RMK A01 T02070083  RH  046%=      5-min Rain = 0
KGGS 092045Z 22008KT 21/08 A3015 RMK A01 T02070081  RH  045%=      5-min Rain = 0
KGGS 092050Z 20007KT 21/09 A3015 RMK A01 T02090085  RH  046%=      5-min Rain = 0
KGGS 092055Z 23006KT 21/08 A3015 RMK A01 T02100080  RH  044%=      5-min Rain = 0
KGGS 092100Z 21007KT 21/09 A3014 RMK A01 T02100085  RH  046%=      5-min Rain = 0
KGGS 092105Z 20007KT 21/08 A3014 RMK A01 T02090082  RH  045%=      5-min Rain = 0
KGGS 092110Z 18007KT 21/08 A3014 RMK A01 T02100076  RH  043%=      5-min Rain = 0
KGGS 092115Z 21007KT 21/08 A3014 RMK A01 T02090079  RH  044%=      5-min Rain = 0
KGGS 092120Z 22004KT 21/08 A3014 RMK A01 T02090083  RH  046%=      5-min Rain = 0
KGGS 092125Z 22008KT 21/06 A3013 RMK A01 T02100061  RH  039%=      5-min Rain = 0
KGGS 092130Z 22004KT 21/07 A3013 RMK A01 T02100071  RH  042%=      5-min Rain = 0
KGGS 092135Z 21007KT 21/07 A3013 RMK A01 T02120071  RH  041%=      5-min Rain = 0
KGGS 092140Z 22005KT 21/07 A3013 RMK A01 T02130066  RH  040%=      5-min Rain = 0
KGGS 092145Z 21007KT 21/07 A3013 RMK A01 T02130073  RH  042%=      5-min Rain = 0
KGGS 092150Z 21006KT 21/07 A3013 RMK A01 T02110068  RH  040%=      5-min Rain = 0
KGGS 092155Z 21007KT 21/07 A3013 RMK A01 T02110069  RH  041%=      5-min Rain = 0
KGGS 092200Z 21005KT 21/07 A3012 RMK A01 T02100071  RH  042%=      5-min Rain = 0
KGGS 092205Z 21007KT 21/07 A3012 RMK A01 T02100071  RH  042%=      5-min Rain = 0
KGGS 092210Z 21006KT 21/07 A3012 RMK A01 T02090067  RH  040%=      5-min Rain = 0
KGGS 092215Z 20007KT 21/07 A3012 RMK A01 T02080070  RH  042%=      5-min Rain = 0
KGGS 092220Z 20007KT 21/07 A3012 RMK A01 T02090071  RH  042%=      5-min Rain = 0
KGGS 092225Z 19007KT 21/07 A3012 RMK A01 T02090073  RH  043%=      5-min Rain = 0
KGGS 092230Z 19007KT 21/07 A3012 RMK A01 T02080073  RH  043%=      5-min Rain = 0
KGGS 092235Z 20007KT 21/08 A3012 RMK A01 T02060078  RH  045%=      5-min Rain = 0
KGGS 092240Z 19006KT 20/08 A3012 RMK A01 T02040080  RH  046%=      5-min Rain = 0
KGGS 092245Z 19006KT 20/08 A3012 RMK A01 T02040077  RH  045%=      5-min Rain = 0
KGGS 092250Z 20006KT 20/08 A3012 RMK A01 T02010081  RH  047%=      5-min Rain = 0
KGGS 092255Z 20005KT 20/08 A3012 RMK A01 T02000083  RH  048%=      5-min Rain = 0
KGGS 092300Z 21006KT 20/08 A3012 RMK A01 T01980077  RH  047%=      5-min Rain = 0
KGGS 092305Z 20006KT 20/08 A3012 RMK A01 T01970079  RH  048%=      5-min Rain = 0
KGGS 092310Z 20006KT 20/08 A3012 RMK A01 T01950079  RH  049%=      5-min Rain = 0
KGGS 092315Z 19005KT 19/08 A3012 RMK A01 T01890078  RH  050%=      5-min Rain = 0
KGGS 092320Z 20005KT 19/08 A3012 RMK A01 T01850076  RH  050%=      5-min Rain = 0
KGGS 092325Z 20005KT 18/08 A3012 RMK A01 T01820077  RH  052%=      5-min Rain = 0
KGGS 092330Z 20004KT 18/08 A3012 RMK A01 T01780078  RH  053%=      5-min Rain = 0
KGGS 092335Z 20005KT 17/08 A3012 RMK A01 T01730080  RH  056%=      5-min Rain = 0
KGGS 092340Z 19005KT 17/08 A3012 RMK A01 T01670082  RH  059%=      5-min Rain = 0
KGGS 092345Z 19006KT 16/08 A3012 RMK A01 T01620084  RH  062%=      5-min Rain = 0
KGGS 092350Z 19005KT 16/09 A3011 RMK A01 T01560085  RH  064%=      5-min Rain = 0
KGGS 092355Z 18005KT 15/09 A3012 RMK A01 T01520085  RH  066%=      5-min Rain = 0
KGGS 100000Z 18005KT 15/09 A3012 RMK A01 T01480085  RH  068%=      5-min Rain = 0
KGGS 100005Z 18005KT 15/08 A3012 RMK A01 T01450084  RH  069%=      5-min Rain = 0
KGGS 100010Z 18006KT 14/08 A3012 RMK A01 T01420084  RH  070%=      5-min Rain = 0
KGGS 100015Z 18006KT 14/08 A3012 RMK A01 T01390083  RH  071%=      5-min Rain = 0
KGGS 100020Z 18006KT 14/08 A3012 RMK A01 T01370083  RH  072%=      5-min Rain = 0
KGGS 100025Z 18006KT 14/08 A3012 RMK A01 T01350083  RH  073%=      5-min Rain = 0
KGGS 100030Z 18006KT 13/08 A3012 RMK A01 T01340083  RH  074%=      5-min Rain = 0
KGGS 100035Z 18006KT 13/08 A3012 RMK A01 T01330084  RH  075%=      5-min Rain = 0
KGGS 100040Z 17006KT 13/09 A3012 RMK A01 T01320085  RH  075%=      5-min Rain = 0
KGGS 100045Z 17006KT 13/09 A3012 RMK A01 T01300086  RH  077%=      5-min Rain = 0
KGGS 100050Z 18006KT 13/09 A3012 RMK A01 T01300087  RH  078%=      5-min Rain = 0
KGGS 100055Z 18006KT 13/09 A3012 RMK A01 T01310089  RH  078%=      5-min Rain = 0
KGGS 100100Z 18006KT 13/09 A3012 RMK A01 T01300089  RH  078%=      5-min Rain = 0
KGGS 100105Z 18006KT 13/09 A3012 RMK A01 T01290088  RH  078%=      5-min Rain = 0
KGGS 100110Z 18006KT 13/09 A3012 RMK A01 T01280088  RH  079%=      5-min Rain = 0
KGGS 100115Z 18006KT 13/09 A3012 RMK A01 T01270087  RH  079%=      5-min Rain = 0
KGGS 100120Z 18006KT 13/09 A3012 RMK A01 T01260086  RH  079%=      5-min Rain = 0
KGGS 100125Z 18005KT 12/09 A3012 RMK A01 T01240085  RH  080%=      5-min Rain = 0
KGGS 100130Z 18005KT 12/09 A3012 RMK A01 T01230085  RH  080%=      5-min Rain = 0
KGGS 100135Z 18005KT 12/09 A3012 RMK A01 T01220085  RH  081%=      5-min Rain = 0
KGGS 100140Z 18005KT 12/09 A3013 RMK A01 T01210085  RH  081%=      5-min Rain = 0
KGGS 100145Z 18004KT 12/08 A3013 RMK A01 T01190083  RH  081%=      5-min Rain = 0
KGGS 100150Z 18004KT 12/08 A3013 RMK A01 T01180084  RH  082%=      5-min Rain = 0
KGGS 100155Z 18005KT 12/08 A3012 RMK A01 T01180084  RH  082%=      5-min Rain = 0
KGGS 100200Z 19005KT 12/08 A3012 RMK A01 T01170084  RH  082%=      5-min Rain = 0
KGGS 100205Z 19006KT 12/09 A3012 RMK A01 T01200087  RH  083%=      5-min Rain = 0
KGGS 100210Z 19006KT 12/09 A3012 RMK A01 T01210087  RH  082%=      5-min Rain = 0
KGGS 100215Z 19006KT 12/09 A3012 RMK A01 T01210086  RH  082%=      5-min Rain = 0
KGGS 100220Z 19006KT 12/09 A3012 RMK A01 T01200086  RH  082%=      5-min Rain = 0
KGGS 100225Z 19005KT 12/09 A3012 RMK A01 T01200085  RH  082%=      5-min Rain = 0
KGGS 100230Z 19004KT 12/08 A3012 RMK A01 T01160082  RH  082%=      5-min Rain = 0
KGGS 100235Z 18003KT 11/08 A3012 RMK A01 T01120080  RH  083%=      5-min Rain = 0
KGGS 100240Z 17003KT 11/08 A3012 RMK A01 T01100081  RH  085%=      5-min Rain = 0
KGGS 100245Z 17003KT 11/08 A3012 RMK A01 T01100082  RH  085%=      5-min Rain = 0
KGGS 100250Z 17003KT 11/08 A3012 RMK A01 T01110084  RH  086%=      5-min Rain = 0
KGGS 100255Z 17003KT 11/09 A3012 RMK A01 T01120085  RH  086%=      5-min Rain = 0
KGGS 100300Z 18004KT 11/09 A3012 RMK A01 T01130086  RH  086%=      5-min Rain = 0
KGGS 100305Z 18006KT 11/09 A3012 RMK A01 T01130085  RH  085%=      5-min Rain = 0
KGGS 100310Z 18005KT 11/09 A3012 RMK A01 T01140085  RH  085%=      5-min Rain = 0
KGGS 100315Z 18005KT 11/08 A3012 RMK A01 T01130083  RH  085%=      5-min Rain = 0
KGGS 100320Z 19006KT 11/08 A3012 RMK A01 T01140084  RH  084%=      5-min Rain = 0
KGGS 100325Z 19006KT 12/09 A3012 RMK A01 T01150085  RH  084%=      5-min Rain = 0
KGGS 100330Z 19007KT 12/09 A3012 RMK A01 T01170086  RH  084%=      5-min Rain = 0
KGGS 100335Z 19006KT 12/09 A3011 RMK A01 T01170086  RH  084%=      5-min Rain = 0
KGGS 100340Z 20006KT 12/08 A3011 RMK A01 T01150084  RH  084%=      5-min Rain = 0
KGGS 100345Z 19006KT 11/08 A3011 RMK A01 T01140084  RH  084%=      5-min Rain = 0
KGGS 100350Z 19007KT 11/08 A3011 RMK A01 T01140084  RH  085%=      5-min Rain = 0
KGGS 100355Z 20007KT 11/09 A3011 RMK A01 T01130085  RH  085%=      5-min Rain = 0
KGGS 100400Z 19006KT 11/08 A3011 RMK A01 T01130084  RH  085%=      5-min Rain = 0
KGGS 100405Z 20006KT 11/08 A3011 RMK A01 T01110083  RH  086%=      5-min Rain = 0
KGGS 100410Z 21006KT 11/08 A3011 RMK A01 T01100084  RH  086%=      5-min Rain = 0
KGGS 100415Z 22006KT 11/09 A3011 RMK A01 T01100085  RH  087%=      5-min Rain = 0
KGGS 100420Z 22006KT 11/08 A3011 RMK A01 T01100084  RH  086%=      5-min Rain = 0
KGGS 100425Z 23006KT 11/08 A3011 RMK A01 T01090084  RH  087%=      5-min Rain = 0
KGGS 100430Z 23006KT 11/09 A3011 RMK A01 T01110085  RH  086%=      5-min Rain = 0
KGGS 100435Z 23007KT 11/08 A3011 RMK A01 T01110084  RH  086%=      5-min Rain = 0
KGGS 100440Z 23007KT 11/09 A3011 RMK A01 T01110085  RH  086%=      5-min Rain = 0
KGGS 100445Z 23006KT 11/08 A3011 RMK A01 T01100084  RH  086%=      5-min Rain = 0
KGGS 100450Z 23006KT 11/08 A3011 RMK A01 T01100083  RH  086%=      5-min Rain = 0
KGGS 100455Z 23007KT 11/08 A3011 RMK A01 T01090083  RH  087%=      5-min Rain = 0
KGGS 100500Z 23007KT 11/09 A3011 RMK A01 T01110085  RH  087%=      5-min Rain = 0
KGGS 100505Z 23006KT 11/08 A3011 RMK A01 T01100084  RH  086%=      5-min Rain = 0
KGGS 100510Z 22006KT 11/08 A3011 RMK A01 T01100084  RH  087%=      5-min Rain = 0
KGGS 100515Z 23006KT 11/08 A3011 RMK A01 T01090084  RH  087%=      5-min Rain = 0
KGGS 100520Z 24006KT 11/08 A3011 RMK A01 T01070082  RH  087%=      5-min Rain = 0
KGGS 100525Z 24007KT 11/08 A3011 RMK A01 T01050080  RH  087%=      5-min Rain = 0
KGGS 100530Z 23006KT 10/08 A301 RMK A01 T01040080  RH  088%=      5-min Rain = 0
KGGS 100535Z 22006KT 10/08 A301 RMK A01 T01040081  RH  088%=      5-min Rain = 0
KGGS 100540Z 22006KT 10/08 A301 RMK A01 T01020079  RH  088%=      5-min Rain = 0
KGGS 100545Z 22007KT 10/08 A301 RMK A01 T01020080  RH  089%=      5-min Rain = 0
KGGS 100550Z 22007KT 11/08 A301 RMK A01 T01050083  RH  089%=      5-min Rain = 0
KGGS 100555Z 22007KT 11/08 A301 RMK A01 T01050084  RH  089%=      5-min Rain = 0

Page generated in 0.0162 seconds.